Time;durP1;ratioP1;P1;durP2;ratioP2;P2;SDS_P1;SDS_P2;PMS_P1;PMS_P2;Temp;Humidity;BMP_temperature;BMP_pressure;BME280_temperature;BME280_humidity;BME280_pressure;Samples;Min_cycle;Max_cycle;Signal;HPM_P1;HPM_P2
2023/02/02 00:01:19;;;;;;;7.23;2.63;;;;;;;;;;5097077;28;20276;-69
2023/02/02 00:03:49;;;;;;;7.50;2.53;;;;;;;;;;5097290;28;20293;-66
2023/02/02 00:06:17;;;;;;;9.87;3.10;;;;;;;;;;5097259;28;20205;-66
2023/02/02 00:08:45;;;;;;;9.27;3.63;;;;;;;;;;5097471;28;20233;-66
2023/02/02 00:11:13;;;;;;;8.33;2.43;;;;;;;;;;5097630;28;20216;-66
2023/02/02 00:13:43;;;;;;;8.20;3.10;;;;;;;;;;5097290;28;20237;-66
2023/02/02 00:16:29;;;;;;;9.30;3.03;;;;;;;;;;5099863;28;20212;-66
2023/02/02 00:18:58;;;;;;;7.07;2.70;;;;;;;;;;5101195;28;20206;-66
2023/02/02 00:21:26;;;;;;;10.13;2.93;;;;;;;;;;5100825;28;20669;-66
2023/02/02 00:23:54;;;;;;;4.77;2.50;;;;;;;;;;5100947;28;20244;-66
2023/02/02 00:26:22;;;;;;;11.40;3.07;;;;;;;;;;5100816;28;20205;-66
2023/02/02 00:28:52;;;;;;;8.03;3.10;;;;;;;;;;5100808;28;20209;-66
2023/02/02 00:31:20;;;;;;;6.53;2.50;;;;;;;;;;5100725;28;20201;-66
2023/02/02 00:33:48;;;;;;;6.93;3.07;;;;;;;;;;5100686;28;20316;-66
2023/02/02 00:36:17;;;;;;;9.10;3.20;;;;;;;;;;5100321;28;20642;-66
2023/02/02 00:38:45;;;;;;;9.60;2.83;;;;;;;;;;5100853;28;20219;-66
2023/02/02 00:41:13;;;;;;;5.37;2.57;;;;;;;;;;5100475;28;20237;-66
2023/02/02 00:43:42;;;;;;;9.67;2.80;;;;;;;;;;5100558;28;20260;-66
2023/02/02 00:46:12;;;;;;;8.73;2.70;;;;;;;;;;5100091;28;20591;-66
2023/02/02 00:48:40;;;;;;;7.33;2.80;;;;;;;;;;5100612;28;20205;-66
2023/02/02 00:51:08;;;;;;;10.57;2.70;;;;;;;;;;5100063;28;20227;-66
2023/02/02 00:53:36;;;;;;;8.73;3.67;;;;;;;;;;5100166;28;20260;-66
2023/02/02 00:56:04;;;;;;;10.63;2.83;;;;;;;;;;5100593;28;20205;-66
2023/02/02 00:58:32;;;;;;;10.87;2.80;;;;;;;;;;5100478;28;20201;-66
2023/02/02 01:01:01;;;;;;;11.17;3.10;;;;;;;;;;5100081;28;20208;-66
2023/02/02 01:03:30;;;;;;;8.00;2.97;;;;;;;;;;5100270;28;20221;-66
2023/02/02 01:05:58;;;;;;;6.80;2.40;;;;;;;;;;5099925;28;20217;-66
2023/02/02 01:08:26;;;;;;;13.93;2.70;;;;;;;;;;5100332;28;20297;-66
2023/02/02 01:10:54;;;;;;;9.30;2.73;;;;;;;;;;5100263;28;20209;-66
2023/02/02 01:13:22;;;;;;;10.10;2.93;;;;;;;;;;5099813;28;20596;-66
2023/02/02 01:15:54;;;;;;;8.70;3.00;;;;;;;;;;5099983;28;20206;-66
2023/02/02 01:18:23;;;;;;;12.43;2.60;;;;;;;;;;5100103;28;20211;-66
2023/02/02 01:20:58;;;;;;;4.93;2.50;;;;;;;;;;5099833;28;20206;-66
2023/02/02 01:23:26;;;;;;;5.47;2.77;;;;;;;;;;5099647;28;20252;-66
2023/02/02 01:25:54;;;;;;;8.13;2.97;;;;;;;;;;5099383;28;20303;-67
2023/02/02 01:28:22;;;;;;;6.93;3.67;;;;;;;;;;5099286;28;20236;-66
2023/02/02 01:30:50;;;;;;;9.00;2.87;;;;;;;;;;5099674;28;20288;-66
2023/02/02 01:33:20;;;;;;;11.37;2.80;;;;;;;;;;5099337;28;20233;-67
2023/02/02 01:35:49;;;;;;;7.20;3.10;;;;;;;;;;5099190;28;20237;-67
2023/02/02 01:38:19;;;;;;;10.93;2.80;;;;;;;;;;5099358;28;20214;-66
2023/02/02 01:40:48;;;;;;;9.13;3.00;;;;;;;;;;5100055;28;20265;-66
2023/02/02 01:43:22;;;;;;;8.77;3.77;;;;;;;;;;5099368;28;20222;-66
2023/02/02 01:45:50;;;;;;;8.60;3.80;;;;;;;;;;5099084;28;20639;-66
2023/02/02 01:48:19;;;;;;;7.47;3.63;;;;;;;;;;5099110;28;20664;-66
2023/02/02 01:50:47;;;;;;;7.80;3.50;;;;;;;;;;5099063;28;20668;-66
2023/02/02 01:53:18;;;;;;;8.80;3.50;;;;;;;;;;5098978;28;20745;-67
2023/02/02 01:55:48;;;;;;;8.20;3.20;;;;;;;;;;5099174;28;20268;-66
2023/02/02 01:58:18;;;;;;;13.07;3.97;;;;;;;;;;5099347;28;20216;-66
2023/02/02 02:00:46;;;;;;;10.90;3.83;;;;;;;;;;5098825;28;20666;-66
2023/02/02 02:03:15;;;;;;;9.43;4.03;;;;;;;;;;5098840;28;20248;-66
2023/02/02 02:05:44;;;;;;;8.60;4.03;;;;;;;;;;5098738;28;20232;-66
2023/02/02 02:08:14;;;;;;;7.40;3.17;;;;;;;;;;5098791;28;20440;-66
2023/02/02 02:10:42;;;;;;;8.80;4.27;;;;;;;;;;5098794;28;20451;-66
2023/02/02 02:13:12;;;;;;;8.50;4.43;;;;;;;;;;5098928;28;20459;-66
2023/02/02 02:18:33;;;;;;;10.57;4.97;;;;;;;;;;5098843;28;20206;-66
2023/02/02 02:27:15;;;;;;;9.90;3.10;;;;;;;;;;5098479;28;20938;-66
2023/02/02 02:29:52;;;;;;;13.37;4.20;;;;;;;;;;5098733;28;20213;-66
2023/02/02 02:32:27;;;;;;;7.50;4.27;;;;;;;;;;5098032;28;20443;-66
2023/02/02 02:34:57;;;;;;;15.83;3.83;;;;;;;;;;5098091;28;20602;-66
2023/02/02 02:37:30;;;;;;;7.13;3.70;;;;;;;;;;5098255;28;20233;-66
2023/02/02 02:40:02;;;;;;;10.70;3.87;;;;;;;;;;5098224;28;20476;-66
2023/02/02 02:42:32;;;;;;;8.63;4.07;;;;;;;;;;5098353;28;20225;-66
2023/02/02 02:45:01;;;;;;;10.43;4.43;;;;;;;;;;5098217;28;20482;-66
2023/02/02 02:47:32;;;;;;;9.73;3.60;;;;;;;;;;5097871;28;20625;-66
2023/02/02 02:50:00;;;;;;;5.57;3.93;;;;;;;;;;5098314;28;20443;-67
2023/02/02 02:52:28;;;;;;;7.87;4.13;;;;;;;;;;5097883;28;20447;-66
2023/02/02 02:54:56;;;;;;;7.50;4.10;;;;;;;;;;5098268;28;20227;-67
2023/02/02 02:57:32;;;;;;;10.80;3.73;;;;;;;;;;5098121;28;20450;-67
2023/02/02 03:00:04;;;;;;;6.30;3.27;;;;;;;;;;5098222;28;20466;-66
2023/02/02 03:02:39;;;;;;;10.63;3.70;;;;;;;;;;5097861;28;20213;-66
2023/02/02 03:05:11;;;;;;;8.90;3.60;;;;;;;;;;5097817;28;20196;-66
2023/02/02 03:07:42;;;;;;;10.43;4.07;;;;;;;;;;5098366;28;20232;-66
2023/02/02 03:10:11;;;;;;;7.37;4.10;;;;;;;;;;5098212;28;20447;-66
2023/02/02 03:12:44;;;;;;;10.03;4.37;;;;;;;;;;5097844;28;20471;-66
2023/02/02 03:15:12;;;;;;;11.33;4.73;;;;;;;;;;5097849;28;20479;-66
2023/02/02 03:17:42;;;;;;;15.60;4.43;;;;;;;;;;5097454;28;20288;-66
2023/02/02 03:20:11;;;;;;;11.67;4.37;;;;;;;;;;5097575;28;20213;-66
2023/02/02 03:22:39;;;;;;;7.70;4.30;;;;;;;;;;5097684;28;20669;-66
2023/02/02 03:25:10;;;;;;;9.80;4.83;;;;;;;;;;5097879;28;20225;-66
2023/02/02 03:27:38;;;;;;;12.40;5.13;;;;;;;;;;5097726;28;20874;-66
2023/02/02 03:30:06;;;;;;;14.57;4.60;;;;;;;;;;5097876;28;20237;-67
2023/02/02 03:32:34;;;;;;;11.73;4.50;;;;;;;;;;5097571;28;20471;-67
2023/02/02 03:35:04;;;;;;;10.53;5.03;;;;;;;;;;5097275;28;20492;-67
2023/02/02 03:37:32;;;;;;;8.03;4.33;;;;;;;;;;5097835;28;20451;-66
2023/02/02 03:40:00;;;;;;;8.33;4.60;;;;;;;;;;5097762;28;20447;-66
2023/02/02 03:42:28;;;;;;;9.47;4.60;;;;;;;;;;5097711;28;20276;-66
2023/02/02 03:44:56;;;;;;;21.43;6.07;;;;;;;;;;5097723;28;20493;-66
2023/02/02 03:47:24;;;;;;;11.40;5.07;;;;;;;;;;5097321;28;20209;-67
2023/02/02 03:49:52;;;;;;;11.10;4.60;;;;;;;;;;5098491;28;20220;-66
2023/02/02 03:52:21;;;;;;;8.80;4.70;;;;;;;;;;5101608;28;20218;-66
2023/02/02 03:54:49;;;;;;;11.10;5.00;;;;;;;;;;5101513;28;20781;-66
2023/02/02 03:57:17;;;;;;;14.10;4.30;;;;;;;;;;5101609;28;20439;-66
2023/02/02 03:59:45;;;;;;;8.47;4.37;;;;;;;;;;5101266;28;20500;-67
2023/02/02 04:02:13;;;;;;;16.90;4.97;;;;;;;;;;5101187;28;20492;-66
2023/02/02 04:04:41;;;;;;;13.30;4.47;;;;;;;;;;5101012;28;20982;-66
2023/02/02 04:07:10;;;;;;;13.47;4.53;;;;;;;;;;5101141;28;20489;-66
2023/02/02 04:09:39;;;;;;;11.97;5.60;;;;;;;;;;5101211;28;20816;-67
2023/02/02 04:12:07;;;;;;;13.13;4.90;;;;;;;;;;5101137;28;20840;-66
2023/02/02 04:14:35;;;;;;;9.50;4.83;;;;;;;;;;5101219;28;20499;-66
2023/02/02 04:17:03;;;;;;;7.63;4.00;;;;;;;;;;5100879;28;20514;-66
2023/02/02 04:19:31;;;;;;;10.97;4.33;;;;;;;;;;5101102;28;20443;-66
2023/02/02 04:21:59;;;;;;;11.63;4.73;;;;;;;;;;5100956;28;20886;-66
2023/02/02 04:24:27;;;;;;;12.43;4.53;;;;;;;;;;5101018;28;20264;-67
2023/02/02 04:26:56;;;;;;;19.07;6.03;;;;;;;;;;5101121;28;20235;-66
2023/02/02 04:29:25;;;;;;;14.67;6.77;;;;;;;;;;5101046;28;20206;-66
2023/02/02 04:31:53;;;;;;;11.23;5.03;;;;;;;;;;5100497;28;20212;-66
2023/02/02 04:34:21;;;;;;;10.50;4.60;;;;;;;;;;5099464;28;20252;-66
2023/02/02 04:36:49;;;;;;;9.33;4.37;;;;;;;;;;5100774;28;20229;-66
2023/02/02 04:39:17;;;;;;;10.33;5.00;;;;;;;;;;5100865;28;20209;-66
2023/02/02 04:41:51;;;;;;;13.17;5.10;;;;;;;;;;5100588;28;20204;-66
2023/02/02 04:44:20;;;;;;;18.30;5.60;;;;;;;;;;5100683;28;20259;-66
2023/02/02 04:46:48;;;;;;;8.20;4.50;;;;;;;;;;5099270;28;20548;-66
2023/02/02 04:49:16;;;;;;;11.97;5.03;;;;;;;;;;5099446;28;20229;-66
2023/02/02 04:51:44;;;;;;;13.20;4.10;;;;;;;;;;5099256;28;20201;-66
2023/02/02 04:54:12;;;;;;;10.93;4.87;;;;;;;;;;5099196;28;20301;-66
2023/02/02 04:56:40;;;;;;;9.10;4.30;;;;;;;;;;5099944;28;20222;-66
2023/02/02 04:59:08;;;;;;;12.17;5.20;;;;;;;;;;5099017;28;20236;-66
2023/02/02 05:01:38;;;;;;;10.43;4.93;;;;;;;;;;5097883;28;20194;-66
2023/02/02 05:04:06;;;;;;;14.37;4.70;;;;;;;;;;5098858;28;20248;-66
2023/02/02 05:06:34;;;;;;;8.07;4.40;;;;;;;;;;5099091;28;20228;-66
2023/02/02 05:09:02;;;;;;;13.30;4.60;;;;;;;;;;5099280;28;20653;-66
2023/02/02 05:11:31;;;;;;;12.20;4.30;;;;;;;;;;5099512;28;20207;-66
2023/02/02 05:13:59;;;;;;;9.00;4.47;;;;;;;;;;5096693;28;20225;-67
2023/02/02 05:16:30;;;;;;;8.33;3.87;;;;;;;;;;5098712;28;20253;-67
2023/02/02 05:19:00;;;;;;;9.13;3.57;;;;;;;;;;5096492;28;20304;-66
2023/02/02 05:21:28;;;;;;;9.37;4.20;;;;;;;;;;5098705;28;20251;-67
2023/02/02 05:23:58;;;;;;;10.27;4.40;;;;;;;;;;5098368;28;20696;-67
2023/02/02 05:26:26;;;;;;;4.90;3.33;;;;;;;;;;5098661;28;20213;-67
2023/02/02 05:28:56;;;;;;;8.73;3.87;;;;;;;;;;5098629;28;20215;-67
2023/02/02 05:31:24;;;;;;;9.20;3.70;;;;;;;;;;5098161;28;20247;-68
2023/02/02 05:33:52;;;;;;;18.00;3.73;;;;;;;;;;5097326;28;20657;-66
2023/02/02 05:36:21;;;;;;;13.43;3.77;;;;;;;;;;5096110;28;20265;-66
2023/02/02 05:38:49;;;;;;;10.17;4.03;;;;;;;;;;5099653;28;20241;-66
2023/02/02 05:41:17;;;;;;;11.37;3.83;;;;;;;;;;5099212;28;20202;-66
2023/02/02 05:43:45;;;;;;;9.57;3.63;;;;;;;;;;5099437;28;20244;-68
2023/02/02 05:46:13;;;;;;;8.93;3.33;;;;;;;;;;5098908;28;20293;-68
2023/02/02 05:48:41;;;;;;;6.27;3.27;;;;;;;;;;5099499;28;20213;-68
2023/02/02 05:51:12;;;;;;;9.67;3.47;;;;;;;;;;5099236;28;20241;-68
2023/02/02 05:53:43;;;;;;;11.27;3.17;;;;;;;;;;5099063;28;20268;-68
2023/02/02 05:56:12;;;;;;;9.77;3.47;;;;;;;;;;5098986;28;20751;-68
2023/02/02 05:58:39;;;;;;;6.37;3.53;;;;;;;;;;5099374;28;20216;-68
2023/02/02 06:01:08;;;;;;;6.30;2.77;;;;;;;;;;5098817;28;20244;-68
2023/02/02 06:03:36;;;;;;;11.70;4.57;;;;;;;;;;5099085;28;20221;-68
2023/02/02 06:06:05;;;;;;;9.00;4.30;;;;;;;;;;5095442;28;20572;-68
2023/02/02 06:08:34;;;;;;;11.03;3.97;;;;;;;;;;5098711;28;20194;-70
2023/02/02 06:11:09;;;;;;;8.33;3.33;;;;;;;;;;5098853;28;20206;-68
2023/02/02 06:13:37;;;;;;;11.70;4.50;;;;;;;;;;5098082;28;20217;-69
2023/02/02 06:16:08;;;;;;;13.27;3.77;;;;;;;;;;5097124;28;20567;-68
2023/02/02 06:18:37;;;;;;;9.07;3.67;;;;;;;;;;5093307;28;20209;-69
2023/02/02 06:21:05;;;;;;;9.83;3.63;;;;;;;;;;5100174;28;20574;-68
2023/02/02 06:23:34;;;;;;;9.77;4.03;;;;;;;;;;5094891;28;20256;-69
2023/02/02 06:26:03;;;;;;;9.80;3.67;;;;;;;;;;5098174;28;20656;-69
2023/02/02 06:28:32;;;;;;;11.40;3.70;;;;;;;;;;5098170;28;20534;-68
2023/02/02 06:31:03;;;;;;;12.13;3.67;;;;;;;;;;5097970;28;20228;-70
2023/02/02 06:33:31;;;;;;;9.87;3.50;;;;;;;;;;5085646;28;20218;-68
2023/02/02 06:36:01;;;;;;;13.60;3.97;;;;;;;;;;5089440;28;20689;-67
2023/02/02 06:38:28;;;;;;;7.27;3.53;;;;;;;;;;5093107;28;20230;-66
2023/02/02 06:40:58;;;;;;;7.70;3.23;;;;;;;;;;5090432;28;20586;-67
2023/02/02 06:43:26;;;;;;;13.10;3.03;;;;;;;;;;5091452;28;20221;-67
2023/02/02 06:45:57;;;;;;;8.20;2.90;;;;;;;;;;5091434;28;20206;-67
2023/02/02 06:48:25;;;;;;;8.23;3.10;;;;;;;;;;5078298;28;20688;-68
2023/02/02 06:50:53;;;;;;;7.87;3.27;;;;;;;;;;5086809;28;20199;-70
2023/02/02 06:53:22;;;;;;;10.97;3.87;;;;;;;;;;5097753;28;20298;-68
2023/02/02 06:55:53;;;;;;;7.00;3.23;;;;;;;;;;5098155;28;20209;-68
2023/02/02 06:58:21;;;;;;;8.13;3.37;;;;;;;;;;5097979;28;20260;-67
2023/02/02 07:00:49;;;;;;;7.93;3.13;;;;;;;;;;5091247;28;20211;-67
2023/02/02 07:03:20;;;;;;;11.87;3.00;;;;;;;;;;5090211;28;20232;-70
2023/02/02 07:05:48;;;;;;;6.90;3.03;;;;;;;;;;5097749;28;20208;-68
2023/02/02 07:08:18;;;;;;;12.57;3.13;;;;;;;;;;5097262;28;20288;-68
2023/02/02 07:10:49;;;;;;;6.20;3.00;;;;;;;;;;5097734;28;20209;-69
2023/02/02 07:13:37;;;;;;;10.87;3.30;;;;;;;;;;5097687;28;20226;-69
2023/02/02 07:16:06;;;;;;;6.37;2.87;;;;;;;;;;5097684;28;20210;-68
2023/02/02 07:18:36;;;;;;;9.70;3.43;;;;;;;;;;5097444;28;20261;-69
2023/02/02 07:21:05;;;;;;;9.10;3.37;;;;;;;;;;5097727;28;20209;-68
2023/02/02 07:23:34;;;;;;;5.40;3.10;;;;;;;;;;5097625;28;20225;-68
2023/02/02 07:26:03;;;;;;;10.57;3.43;;;;;;;;;;5094293;28;20684;-68
2023/02/02 07:28:31;;;;;;;13.13;4.20;;;;;;;;;;5100261;28;20197;-69
2023/02/02 07:30:59;;;;;;;15.87;3.80;;;;;;;;;;5101742;28;20308;-68
2023/02/02 07:33:27;;;;;;;10.93;3.83;;;;;;;;;;5101680;28;20572;-68
2023/02/02 07:35:57;;;;;;;8.27;4.07;;;;;;;;;;5101505;28;20312;-68
2023/02/02 07:38:25;;;;;;;10.97;4.33;;;;;;;;;;5089779;28;20225;-69
2023/02/02 07:40:53;;;;;;;7.37;2.97;;;;;;;;;;5101567;28;20228;-72
2023/02/02 07:43:21;;;;;;;6.73;3.30;;;;;;;;;;5098159;28;20253;-67
2023/02/02 07:45:49;;;;;;;14.27;3.90;;;;;;;;;;5099813;28;20345;-67
2023/02/02 07:48:17;;;;;;;9.37;3.97;;;;;;;;;;5101338;28;20198;-67
2023/02/02 07:50:45;;;;;;;12.27;4.40;;;;;;;;;;5100798;28;20564;-68
2023/02/02 07:53:15;;;;;;;11.57;3.90;;;;;;;;;;5101466;28;20312;-67
2023/02/02 07:55:45;;;;;;;19.53;5.13;;;;;;;;;;5101457;28;20205;-68
2023/02/02 07:58:13;;;;;;;10.40;3.57;;;;;;;;;;5100449;28;20229;-67
2023/02/02 08:00:41;;;;;;;10.67;4.23;;;;;;;;;;5095385;28;20209;-68
2023/02/02 08:03:10;;;;;;;9.10;3.67;;;;;;;;;;5101213;28;20232;-67
2023/02/02 08:05:39;;;;;;;9.83;3.23;;;;;;;;;;5101195;28;20213;-68
2023/02/02 08:08:07;;;;;;;10.53;3.37;;;;;;;;;;5100864;28;20201;-68
2023/02/02 08:10:36;;;;;;;6.57;3.30;;;;;;;;;;5101267;28;20216;-67
2023/02/02 08:13:04;;;;;;;8.97;3.87;;;;;;;;;;5100814;28;20592;-67
2023/02/02 08:15:32;;;;;;;14.90;5.63;;;;;;;;;;5099405;28;20210;-67
2023/02/02 08:18:00;;;;;;;9.57;4.27;;;;;;;;;;5100740;28;20229;-68
2023/02/02 08:20:28;;;;;;;10.93;3.57;;;;;;;;;;5100530;28;20240;-68
2023/02/02 08:22:57;;;;;;;16.70;4.60;;;;;;;;;;5100519;28;20229;-68
2023/02/02 08:25:25;;;;;;;13.33;4.03;;;;;;;;;;5100195;28;20198;-66
2023/02/02 08:27:57;;;;;;;9.60;3.57;;;;;;;;;;5100571;28;20198;-67
2023/02/02 08:30:25;;;;;;;13.17;4.03;;;;;;;;;;5100206;28;20242;-66
2023/02/02 08:32:53;;;;;;;13.50;3.43;;;;;;;;;;5093495;28;20634;-67
2023/02/02 08:35:21;;;;;;;11.13;3.37;;;;;;;;;;5098636;28;20707;-65
2023/02/02 08:37:49;;;;;;;12.77;4.80;;;;;;;;;;5088099;28;20745;-66
2023/02/02 08:40:18;;;;;;;10.57;4.00;;;;;;;;;;5099745;28;20240;-65
2023/02/02 08:42:49;;;;;;;8.23;3.60;;;;;;;;;;5100350;28;20304;-65
2023/02/02 08:45:19;;;;;;;16.10;3.80;;;;;;;;;;5100357;28;20205;-66
2023/02/02 08:48:07;;;;;;;10.07;3.30;;;;;;;;;;5100420;28;20206;-65
2023/02/02 08:50:39;;;;;;;9.53;3.07;;;;;;;;;;5087383;28;20211;-66
2023/02/02 08:53:07;;;;;;;15.77;4.20;;;;;;;;;;5098726;28;20225;-65
2023/02/02 08:55:35;;;;;;;13.43;3.83;;;;;;;;;;5098912;28;20680;-66
2023/02/02 08:58:04;;;;;;;10.70;3.80;;;;;;;;;;5099163;28;20227;-66
2023/02/02 09:00:33;;;;;;;14.47;4.30;;;;;;;;;;5099232;28;20202;-65
2023/02/02 09:03:01;;;;;;;8.50;3.13;;;;;;;;;;5099153;28;20638;-66
2023/02/02 09:05:29;;;;;;;12.17;3.57;;;;;;;;;;5099449;28;20211;-67
2023/02/02 09:07:58;;;;;;;11.40;2.97;;;;;;;;;;5092325;28;20232;-66
2023/02/02 09:10:26;;;;;;;12.83;4.13;;;;;;;;;;5099840;28;20637;-66
2023/02/02 09:12:54;;;;;;;9.67;4.60;;;;;;;;;;5099608;28;20252;-65
2023/02/02 09:15:22;;;;;;;10.53;3.50;;;;;;;;;;5099987;28;20209;-65
2023/02/02 09:17:52;;;;;;;8.73;3.50;;;;;;;;;;5099827;28;20213;-66
2023/02/02 09:20:20;;;;;;;10.30;3.93;;;;;;;;;;5098020;28;20212;-65
2023/02/02 09:22:57;;;;;;;8.83;4.17;;;;;;;;;;5088171;28;20715;-65
2023/02/02 09:25:26;;;;;;;8.43;3.33;;;;;;;;;;5098494;28;20205;-65
2023/02/02 09:27:54;;;;;;;11.07;3.80;;;;;;;;;;5099458;28;20271;-66
2023/02/02 09:30:22;;;;;;;8.17;3.57;;;;;;;;;;5099260;28;20209;-66
2023/02/02 09:32:51;;;;;;;13.53;3.37;;;;;;;;;;5099092;28;20312;-67
2023/02/02 09:35:19;;;;;;;11.43;3.40;;;;;;;;;;5098776;28;20257;-67
2023/02/02 09:37:47;;;;;;;16.50;3.87;;;;;;;;;;5097494;28;20262;-66
2023/02/02 09:40:18;;;;;;;13.87;4.20;;;;;;;;;;5097419;28;20225;-65
2023/02/02 09:42:54;;;;;;;12.73;3.43;;;;;;;;;;5099100;28;20228;-67
2023/02/02 09:45:26;;;;;;;7.27;3.70;;;;;;;;;;5096660;28;20203;-66
2023/02/02 09:47:57;;;;;;;9.00;3.80;;;;;;;;;;5098536;28;20197;-67
2023/02/02 09:50:34;;;;;;;5.33;3.03;;;;;;;;;;5100409;28;20198;-67
2023/02/02 09:53:04;;;;;;;11.10;2.83;;;;;;;;;;5099091;28;20229;-67
2023/02/02 09:55:36;;;;;;;18.20;3.50;;;;;;;;;;5099311;28;20213;-65
2023/02/02 09:58:08;;;;;;;10.77;3.17;;;;;;;;;;5097613;28;20209;-66
2023/02/02 10:00:38;;;;;;;7.27;3.40;;;;;;;;;;5099030;28;20212;-65
2023/02/02 10:03:15;;;;;;;11.37;2.90;;;;;;;;;;5099021;28;20234;-66
2023/02/02 10:05:46;;;;;;;10.30;3.30;;;;;;;;;;5098887;28;20295;-66
2023/02/02 10:08:18;;;;;;;12.67;3.57;;;;;;;;;;5098661;28;20259;-66
2023/02/02 10:11:03;;;;;;;10.23;3.00;;;;;;;;;;5099101;28;20212;-65
2023/02/02 10:13:33;;;;;;;11.57;2.27;;;;;;;;;;5098676;28;20225;-66
2023/02/02 10:16:06;;;;;;;12.00;3.13;;;;;;;;;;5085572;28;20288;-65
2023/02/02 10:18:42;;;;;;;8.10;2.73;;;;;;;;;;5098360;28;20270;-65
2023/02/02 10:21:12;;;;;;;15.80;2.77;;;;;;;;;;5098275;28;20262;-66
2023/02/02 10:23:40;;;;;;;15.50;2.80;;;;;;;;;;5098674;28;20268;-67
2023/02/02 10:26:13;;;;;;;7.77;2.90;;;;;;;;;;5098133;28;20222;-66
2023/02/02 10:28:49;;;;;;;9.33;2.90;;;;;;;;;;5095221;28;20201;-67
2023/02/02 10:31:19;;;;;;;15.00;3.23;;;;;;;;;;5096852;28;20193;-66
2023/02/02 10:33:54;;;;;;;5.37;2.47;;;;;;;;;;5097847;28;20217;-66
2023/02/02 10:36:27;;;;;;;10.90;2.67;;;;;;;;;;5095219;28;20233;-68
2023/02/02 10:39:00;;;;;;;8.93;2.80;;;;;;;;;;5097394;28;20221;-67
2023/02/02 10:41:34;;;;;;;7.93;1.90;;;;;;;;;;5097698;28;20762;-67
2023/02/02 10:44:13;;;;;;;11.63;2.90;;;;;;;;;;5094476;28;20221;-68
2023/02/02 10:46:43;;;;;;;13.20;2.37;;;;;;;;;;5096485;28;20541;-67
2023/02/02 10:49:16;;;;;;;9.10;2.37;;;;;;;;;;5097299;28;20197;-67
2023/02/02 10:51:49;;;;;;;7.57;2.47;;;;;;;;;;5096027;28;20206;-67
2023/02/02 10:54:25;;;;;;;9.37;2.57;;;;;;;;;;5097437;28;20213;-67
2023/02/02 10:56:56;;;;;;;9.27;2.80;;;;;;;;;;5097974;28;20206;-66
2023/02/02 10:59:27;;;;;;;10.70;2.90;;;;;;;;;;5097993;28;20260;-66
2023/02/02 11:01:55;;;;;;;6.73;2.50;;;;;;;;;;5097512;28;20211;-67
2023/02/02 11:07:19;;;;;;;8.33;2.50;;;;;;;;;;5061399;28;20233;-67
2023/02/02 11:09:47;;;;;;;10.10;2.70;;;;;;;;;;5097828;28;20205;-65
2023/02/02 11:12:18;;;;;;;11.60;2.73;;;;;;;;;;5094344;28;20233;-66
2023/02/02 11:14:49;;;;;;;6.57;2.43;;;;;;;;;;5097165;28;20280;-68
2023/02/02 11:17:19;;;;;;;5.00;2.23;;;;;;;;;;5094675;28;20202;-67
2023/02/02 11:19:49;;;;;;;9.03;2.80;;;;;;;;;;5089403;28;20685;-67
2023/02/02 11:22:25;;;;;;;5.53;2.77;;;;;;;;;;5096344;28;20209;-67
2023/02/02 11:24:53;;;;;;;9.57;3.20;;;;;;;;;;5091070;28;20292;-66
2023/02/02 11:27:23;;;;;;;6.70;3.03;;;;;;;;;;5097281;28;20669;-65
2023/02/02 11:29:51;;;;;;;11.33;3.00;;;;;;;;;;5096338;28;20265;-66
2023/02/02 11:32:25;;;;;;;7.80;2.77;;;;;;;;;;5096677;28;20209;-66
2023/02/02 11:35:14;;;;;;;11.10;3.03;;;;;;;;;;5096677;28;20233;-66
2023/02/02 11:37:57;;;;;;;8.47;2.77;;;;;;;;;;5095004;28;20201;-67
2023/02/02 11:40:32;;;;;;;5.97;2.53;;;;;;;;;;5094603;28;20225;-68
2023/02/02 11:43:01;;;;;;;6.47;2.83;;;;;;;;;;5097148;28;20249;-70
2023/02/02 11:45:31;;;;;;;6.00;2.80;;;;;;;;;;5097051;28;20209;-73
2023/02/02 11:48:05;;;;;;;14.37;2.97;;;;;;;;;;5097148;28;20229;-73
2023/02/02 11:50:35;;;;;;;9.33;3.20;;;;;;;;;;5097630;28;20255;-72
2023/02/02 11:53:03;;;;;;;7.57;2.83;;;;;;;;;;5097352;28;20664;-71
2023/02/02 11:55:31;;;;;;;9.93;2.63;;;;;;;;;;5097468;28;20209;-67
2023/02/02 11:58:18;;;;;;;11.33;2.60;;;;;;;;;;5097635;28;20244;-68
2023/02/02 12:00:47;;;;;;;9.87;3.00;;;;;;;;;;5097266;28;20229;-71
2023/02/02 12:03:23;;;;;;;8.50;3.13;;;;;;;;;;5085683;28;20229;-71
2023/02/02 12:05:53;;;;;;;10.73;3.33;;;;;;;;;;5094276;28;20668;-70
2023/02/02 12:08:21;;;;;;;10.80;3.10;;;;;;;;;;5090709;28;20194;-71
2023/02/02 12:10:53;;;;;;;7.50;3.10;;;;;;;;;;5096152;28;20216;-71
2023/02/02 12:13:27;;;;;;;7.40;2.80;;;;;;;;;;5099063;28;20222;-71
2023/02/02 12:16:02;;;;;;;9.77;2.87;;;;;;;;;;5087311;28;20273;-71
2023/02/02 12:18:37;;;;;;;7.50;2.60;;;;;;;;;;5101012;28;20239;-71
2023/02/02 12:21:07;;;;;;;8.70;4.13;;;;;;;;;;5100804;28;20259;-70
2023/02/02 12:23:42;;;;;;;6.90;2.30;;;;;;;;;;5100785;28;20708;-70
2023/02/02 12:26:21;;;;;;;6.43;3.03;;;;;;;;;;5100981;28;20295;-71
2023/02/02 12:28:57;;;;;;;5.43;2.23;;;;;;;;;;5100734;28;20219;-70
2023/02/02 12:31:30;;;;;;;13.23;3.40;;;;;;;;;;5090781;28;20718;-71
2023/02/02 12:34:02;;;;;;;4.93;2.10;;;;;;;;;;5100584;28;20221;-70
2023/02/02 12:36:38;;;;;;;8.73;2.60;;;;;;;;;;5100071;28;20653;-70
2023/02/02 12:39:18;;;;;;;10.77;2.50;;;;;;;;;;5100621;28;20215;-70
2023/02/02 12:42:01;;;;;;;4.70;2.40;;;;;;;;;;5100832;28;20249;-71
2023/02/02 12:44:32;;;;;;;6.73;2.40;;;;;;;;;;5100597;28;20260;-71
2023/02/02 12:47:07;;;;;;;4.30;2.27;;;;;;;;;;5100284;28;20206;-71
2023/02/02 12:49:50;;;;;;;7.03;1.93;;;;;;;;;;5096442;28;20324;-71
2023/02/02 12:52:26;;;;;;;6.93;2.80;;;;;;;;;;5100646;28;20213;-71
2023/02/02 12:55:24;;;;;;;8.90;2.70;;;;;;;;;;5100592;28;20228;-71
2023/02/02 12:58:01;;;;;;;7.40;2.27;;;;;;;;;;5009063;28;20211;-70
2023/02/02 13:00:56;;;;;;;7.87;2.67;;;;;;;;;;5086678;28;20264;-70
2023/02/02 13:03:30;;;;;;;8.53;3.20;;;;;;;;;;5052838;28;20631;-71
2023/02/02 13:06:22;;;;;;;7.67;3.40;;;;;;;;;;5088041;28;20200;-71
2023/02/02 13:08:53;;;;;;;11.90;2.67;;;;;;;;;;5099773;28;20572;-71
2023/02/02 13:11:30;;;;;;;5.17;2.13;;;;;;;;;;5099658;28;20232;-71
2023/02/02 13:14:00;;;;;;;7.03;3.20;;;;;;;;;;5099636;28;20688;-69
2023/02/02 13:16:30;;;;;;;9.63;3.00;;;;;;;;;;5099801;28;20221;-70
2023/02/02 13:19:01;;;;;;;7.07;2.17;;;;;;;;;;5099766;28;20231;-69
2023/02/02 13:21:30;;;;;;;6.80;2.40;;;;;;;;;;5096307;28;20266;-63
2023/02/02 13:24:01;;;;;;;8.00;2.57;;;;;;;;;;5097411;28;20753;-63
2023/02/02 13:26:36;;;;;;;7.90;2.77;;;;;;;;;;5099337;28;20221;-63
2023/02/02 13:29:06;;;;;;;3.87;1.90;;;;;;;;;;5098162;28;20205;-63
2023/02/02 13:31:36;;;;;;;9.47;2.33;;;;;;;;;;5096350;28;20205;-69
2023/02/02 13:34:06;;;;;;;8.30;2.30;;;;;;;;;;5099175;28;20243;-70
2023/02/02 13:36:37;;;;;;;9.27;2.70;;;;;;;;;;5096947;28;20244;-70
2023/02/02 13:39:16;;;;;;;10.50;2.97;;;;;;;;;;5091452;28;20210;-69
2023/02/02 13:41:48;;;;;;;6.27;2.43;;;;;;;;;;5097227;28;20217;-70
2023/02/02 13:44:21;;;;;;;7.00;2.43;;;;;;;;;;5099517;28;20252;-69
2023/02/02 13:46:55;;;;;;;6.53;2.63;;;;;;;;;;5099399;28;20202;-70
2023/02/02 13:49:27;;;;;;;8.27;2.50;;;;;;;;;;5098792;28;20205;-67
2023/02/02 13:52:04;;;;;;;4.37;2.47;;;;;;;;;;5099234;28;20206;-68
2023/02/02 13:54:58;;;;;;;6.53;1.50;;;;;;;;;;5098931;28;20224;-68
2023/02/02 13:57:31;;;;;;;4.80;1.97;;;;;;;;;;5085101;28;20654;-67
2023/02/02 14:00:02;;;;;;;6.13;1.97;;;;;;;;;;5099186;28;20209;-65
2023/02/02 14:02:33;;;;;;;4.80;2.67;;;;;;;;;;5098867;28;20225;-67
2023/02/02 14:05:02;;;;;;;5.20;1.90;;;;;;;;;;5098712;28;20205;-69
2023/02/02 14:07:36;;;;;;;6.00;1.67;;;;;;;;;;5099077;28;20208;-70
2023/02/02 14:10:07;;;;;;;5.97;2.10;;;;;;;;;;5099067;28;20211;-68
2023/02/02 14:12:35;;;;;;;4.70;1.90;;;;;;;;;;5094533;28;20209;-70
2023/02/02 14:15:05;;;;;;;6.37;1.60;;;;;;;;;;5091518;28;20236;-66
2023/02/02 14:17:51;;;;;;;3.20;1.53;;;;;;;;;;5098842;28;20272;-67
2023/02/02 14:20:43;;;;;;;6.90;1.50;;;;;;;;;;5098735;28;20205;-69
2023/02/02 14:23:30;;;;;;;5.73;1.73;;;;;;;;;;5078746;28;20746;-67
2023/02/02 14:26:06;;;;;;;6.27;2.80;;;;;;;;;;5098661;28;20208;-68
2023/02/02 14:28:47;;;;;;;5.40;1.60;;;;;;;;;;5098660;28;20243;-68
2023/02/02 14:31:30;;;;;;;5.70;1.83;;;;;;;;;;5093373;28;20201;-67
2023/02/02 14:34:17;;;;;;;3.73;1.47;;;;;;;;;;5098136;28;20229;-69
2023/02/02 14:36:51;;;;;;;4.50;1.70;;;;;;;;;;5098139;28;20241;-67
2023/02/02 14:39:22;;;;;;;4.77;1.60;;;;;;;;;;5098311;28;20212;-67
2023/02/02 14:45:14;;;;;;;9.93;1.77;;;;;;;;;;5098290;28;20216;-68
2023/02/02 14:47:47;;;;;;;5.87;1.80;;;;;;;;;;5085664;28;20206;-67
2023/02/02 14:50:16;;;;;;;4.73;1.80;;;;;;;;;;5098015;28;20288;-68
2023/02/02 14:52:44;;;;;;;5.57;1.77;;;;;;;;;;5098032;28;20213;-69
2023/02/02 14:55:19;;;;;;;11.70;2.00;;;;;;;;;;5097677;28;20205;-67
2023/02/02 14:57:55;;;;;;;5.57;1.90;;;;;;;;;;5097754;28;20197;-66
2023/02/02 15:00:25;;;;;;;5.33;2.00;;;;;;;;;;5096325;28;20658;-68
2023/02/02 15:02:53;;;;;;;6.37;1.73;;;;;;;;;;5096425;28;20693;-68
2023/02/02 15:05:40;;;;;;;13.70;2.40;;;;;;;;;;5096538;28;20560;-70
2023/02/02 15:08:14;;;;;;;11.17;2.33;;;;;;;;;;5095037;28;20251;-69
2023/02/02 15:14:06;;;;;;;4.73;1.60;;;;;;;;;;5096019;28;20236;-69
2023/02/02 15:16:37;;;;;;;7.10;2.00;;;;;;;;;;5094757;28;20198;-69
2023/02/02 15:19:08;;;;;;;8.27;2.10;;;;;;;;;;5097579;28;20208;-70